Observation data for Clarendon on 01/17/2019      Previous  Date  Next       Current Mesonet Observations  Soil Data  Daily Summary Page  Observations in Plain Language
KCES 170600Z 31014KT 10/M01 A3002 RMK A01 T01021012  RH  045%=      5-min Rain = 0
KCES 170605Z 32012KT 10/M01 A3003 RMK A01 T00961012  RH  047%=      5-min Rain = 0
KCES 170610Z 31011KT 09/M01 A3003 RMK A01 T00901013  RH  049%=      5-min Rain = 0
KCES 170615Z 31012KT 09/M01 A3003 RMK A01 T00871012  RH  050%=      5-min Rain = 0
KCES 170620Z 32012KT 08/M01 A3003 RMK A01 T00831011  RH  052%=      5-min Rain = 0
KCES 170625Z 32012KT 08/M01 A3003 RMK A01 T00791009  RH  055%=      5-min Rain = 0
KCES 170630Z 32011KT 07/M01 A3003 RMK A01 T00741007  RH  057%=      5-min Rain = 0
KCES 170635Z 33010KT 07/M01 A3004 RMK A01 T00691006  RH  059%=      5-min Rain = 0
KCES 170640Z 35009KT 06/M01 A3004 RMK A01 T00631008  RH  061%=      5-min Rain = 0
KCES 170645Z 34011KT 06/M00 A3004 RMK A01 T00601003  RH  065%=      5-min Rain = 0
KCES 170650Z 33013KT 06/00 A3003 RMK A01 T00590002  RH  068%=      5-min Rain = 0
KCES 170655Z 34013KT 06/00 A3003 RMK A01 T00560003  RH  070%=      5-min Rain = 0
KCES 170700Z 34013KT 05/00 A3003 RMK A01 T00520003  RH  071%=      5-min Rain = 0
KCES 170705Z 34012KT 05/00 A3003 RMK A01 T00480002  RH  073%=      5-min Rain = 0
KCES 170710Z 35013G19KT 04/00 A3003 RMK A01 T00440003  RH  076%=      5-min Rain = 0
KCES 170715Z 35013KT 04/00 A3003 RMK A01 T00380001  RH  078%=      5-min Rain = 0
KCES 170720Z 35013KT 03/00 A3004 RMK A01 T00340001  RH  080%=      5-min Rain = 0
KCES 170725Z 34013KT 03/00 A3004 RMK A01 T00310002  RH  082%=      5-min Rain = 0
KCES 170730Z 34013KT 03/00 A3004 RMK A01 T00300003  RH  084%=      5-min Rain = 0
KCES 170735Z 33012KT 03/00 A3004 RMK A01 T00290003  RH  084%=      5-min Rain = 0
KCES 170740Z 33012KT 03/00 A3004 RMK A01 T00270003  RH  085%=      5-min Rain = 0
KCES 170745Z 33011KT 03/00 A3004 RMK A01 T00250001  RH  085%=      5-min Rain = 0
KCES 170750Z 33010KT 02/00 A3004 RMK A01 T002300-0  RH  086%=      5-min Rain = 0
KCES 170755Z 33011KT 02/00 A3004 RMK A01 T00220000  RH  086%=      5-min Rain = 0
KCES 170800Z 33012KT 02/00 A3004 RMK A01 T00240001  RH  086%=      5-min Rain = 0
KCES 170805Z 33012KT 03/00 A3004 RMK A01 T00250002  RH  086%=      5-min Rain = 0
KCES 170810Z 33013KT 03/00 A3004 RMK A01 T00260003  RH  086%=      5-min Rain = 0
KCES 170815Z 33013KT 03/00 A3004 RMK A01 T00270003  RH  086%=      5-min Rain = 0
KCES 170820Z 33013KT 03/00 A3004 RMK A01 T00280004  RH  085%=      5-min Rain = 0
KCES 170825Z 33013KT 03/00 A3004 RMK A01 T00280004  RH  085%=      5-min Rain = 0
KCES 170830Z 33013KT 03/00 A3004 RMK A01 T00280004  RH  085%=      5-min Rain = 0
KCES 170835Z 33014KT 03/00 A3004 RMK A01 T00290004  RH  085%=      5-min Rain = 0
KCES 170840Z 33012KT 03/01 A3005 RMK A01 T00290005  RH  085%=      5-min Rain = 0
KCES 170845Z 33012KT 03/01 A3005 RMK A01 T00280005  RH  085%=      5-min Rain = 0
KCES 170850Z 33012KT 03/00 A3005 RMK A01 T00280004  RH  085%=      5-min Rain = 0
KCES 170855Z 33012KT 03/00 A3005 RMK A01 T00260003  RH  086%=      5-min Rain = 0
KCES 170900Z 34012KT 02/00 A3005 RMK A01 T00240003  RH  087%=      5-min Rain = 0
KCES 170905Z 34011KT 02/00 A3005 RMK A01 T00220002  RH  088%=      5-min Rain = 0
KCES 170910Z 34013KT 03/01 A3006 RMK A01 T00260007  RH  088%=      5-min Rain = 0
KCES 170915Z 34013KT 03/01 A3006 RMK A01 T00270007  RH  088%=      5-min Rain = 0
KCES 170920Z 34012KT 03/01 A3006 RMK A01 T00260007  RH  088%=      5-min Rain = 0
KCES 170925Z 34013KT 03/01 A3007 RMK A01 T00250007  RH  089%=      5-min Rain = 0
KCES 170930Z 34014KT 03/01 A3007 RMK A01 T00250007  RH  089%=      5-min Rain = 0
KCES 170935Z 34015KT 03/01 A3007 RMK A01 T00250008  RH  090%=      5-min Rain = 0
KCES 170940Z 34014KT 02/01 A3007 RMK A01 T00240008  RH  090%=      5-min Rain = 0
KCES 170945Z 34013KT 02/01 A3007 RMK A01 T00220007  RH  091%=      5-min Rain = 0
KCES 170950Z 34012KT 02/01 A3008 RMK A01 T00210006  RH  091%=      5-min Rain = 0
KCES 170955Z 33012KT 02/01 A3008 RMK A01 T00200006  RH  091%=      5-min Rain = 0
KCES 171000Z 33013KT 02/01 A3008 RMK A01 T00210007  RH  092%=      5-min Rain = 0
KCES 171005Z 33012KT 02/01 A3008 RMK A01 T00200006  RH  091%=      5-min Rain = 0
KCES 171010Z 32013KT 02/01 A3008 RMK A01 T00190005  RH  092%=      5-min Rain = 0
KCES 171015Z 32011KT 02/00 A3008 RMK A01 T00170004  RH  092%=      5-min Rain = 0
KCES 171020Z 33010KT 02/00 A3008 RMK A01 T00150003  RH  092%=      5-min Rain = 0
KCES 171025Z 33010KT 02/00 A3008 RMK A01 T00160004  RH  093%=      5-min Rain = 0
KCES 171030Z 33010KT 02/00 A3008 RMK A01 T00150003  RH  093%=      5-min Rain = 0
KCES 171035Z 32011KT 02/00 A3008 RMK A01 T00160004  RH  093%=      5-min Rain = 0
KCES 171040Z 32012KT 02/00 A3008 RMK A01 T00150004  RH  093%=      5-min Rain = 0
KCES 171045Z 32013KT 02/01 A3008 RMK A01 T00160005  RH  094%=      5-min Rain = 0
KCES 171050Z 31012KT 02/01 A3008 RMK A01 T00150005  RH  094%=      5-min Rain = 0
KCES 171055Z 31011KT 01/00 A3008 RMK A01 T00140004  RH  094%=      5-min Rain = 0
KCES 171100Z 31012KT 01/01 A3009 RMK A01 T00140005  RH  094%=      5-min Rain = 0
KCES 171105Z 31011KT 02/01 A3009 RMK A01 T00150005  RH  094%=      5-min Rain = 0
KCES 171110Z 31012KT 02/01 A3009 RMK A01 T00150005  RH  094%=      5-min Rain = 0
KCES 171115Z 31012KT 01/01 A3009 RMK A01 T00140005  RH  094%=      5-min Rain = 0
KCES 171120Z 31012KT 02/01 A3009 RMK A01 T00150005  RH  094%=      5-min Rain = 0
KCES 171125Z 31013KT 02/01 A3009 RMK A01 T00150005  RH  094%=      5-min Rain = 0
KCES 171130Z 31013KT 02/01 A3009 RMK A01 T00160005  RH  094%=      5-min Rain = 0
KCES 171135Z 31013KT 02/01 A3009 RMK A01 T00160005  RH  094%=      5-min Rain = 0
KCES 171140Z 31013KT 02/01 A3009 RMK A01 T00160005  RH  093%=      5-min Rain = 0
KCES 171145Z 31013KT 02/01 A3009 RMK A01 T00160005  RH  093%=      5-min Rain = 0
KCES 171150Z 31013KT 02/00 A3009 RMK A01 T00150003  RH  093%=      5-min Rain = 0
KCES 171155Z 32014KT 02/00 A3009 RMK A01 T00160003  RH  093%=      5-min Rain = 0
KCES 171200Z 32013KT 02/00 A3009 RMK A01 T00150003  RH  092%=      5-min Rain = 0
KCES 171205Z 32011KT 02/00 A3009 RMK A01 T00160002  RH  092%=      5-min Rain = 0
KCES 171210Z 32011KT 02/00 A3009 RMK A01 T00150002  RH  092%=      5-min Rain = 0
KCES 171215Z 32011KT 02/00 A3009 RMK A01 T00160002  RH  091%=      5-min Rain = 0
KCES 171220Z 32011KT 02/00 A301 RMK A01 T00170002  RH  091%=      5-min Rain = 0
KCES 171225Z 32012KT 02/00 A301 RMK A01 T00190003  RH  090%=      5-min Rain = 0
KCES 171230Z 32011KT 02/00 A301 RMK A01 T00200002  RH  089%=      5-min Rain = 0
KCES 171235Z 32011KT 02/00 A301 RMK A01 T00200001  RH  089%=      5-min Rain = 0
KCES 171240Z 32010KT 02/00 A301 RMK A01 T00200001  RH  088%=      5-min Rain = 0
KCES 171245Z 32010KT 02/00 A301 RMK A01 T00200000  RH  088%=      5-min Rain = 0
KCES 171250Z 33010KT 02/00 A3011 RMK A01 T002000-0  RH  087%=      5-min Rain = 0
KCES 171255Z 33011KT 02/M00 A3011 RMK A01 T00201001  RH  087%=      5-min Rain = 0
KCES 171300Z 32010KT 02/M00 A3012 RMK A01 T00191003  RH  087%=      5-min Rain = 0
KCES 171305Z 32010KT 02/M00 A3012 RMK A01 T00181003  RH  087%=      5-min Rain = 0
KCES 171310Z 32008KT 02/M00 A3012 RMK A01 T00181004  RH  086%=      5-min Rain = 0
KCES 171315Z 32007KT 02/M01 A3013 RMK A01 T00171005  RH  086%=      5-min Rain = 0
KCES 171320Z 32008KT 02/M01 A3013 RMK A01 T00181005  RH  085%=      5-min Rain = 0
KCES 171325Z 32007KT 02/M01 A3013 RMK A01 T00181006  RH  085%=      5-min Rain = 0
KCES 171330Z 32007KT 02/M01 A3013 RMK A01 T00171007  RH  085%=      5-min Rain = 0
KCES 171335Z 32006KT 02/M01 A3013 RMK A01 T00151008  RH  085%=      5-min Rain = 0
KCES 171340Z 32007KT 01/M01 A3013 RMK A01 T00141009  RH  086%=      5-min Rain = 0
KCES 171345Z 32007KT 01/M01 A3013 RMK A01 T00141009  RH  086%=      5-min Rain = 0
KCES 171350Z 31007KT 01/M01 A3014 RMK A01 T00141009  RH  085%=      5-min Rain = 0
KCES 171355Z 31007KT 01/M01 A3014 RMK A01 T00131010  RH  085%=      5-min Rain = 0
KCES 171400Z 31007KT 01/M01 A3014 RMK A01 T00131010  RH  085%=      5-min Rain = 0
KCES 171405Z 32007KT 01/M01 A3014 RMK A01 T00141010  RH  085%=      5-min Rain = 0
KCES 171410Z 31006KT 01/M01 A3014 RMK A01 T00141011  RH  084%=      5-min Rain = 0
KCES 171415Z 31006KT 02/M01 A3014 RMK A01 T00151010  RH  084%=      5-min Rain = 0
KCES 171420Z 31004KT 02/M01 A3014 RMK A01 T00171009  RH  083%=      5-min Rain = 0
KCES 171425Z 31002KT 02/M01 A3014 RMK A01 T00201008  RH  083%=      5-min Rain = 0
KCES 171430Z 33002KT 02/M01 A3014 RMK A01 T00231006  RH  082%=      5-min Rain = 0
KCES 171435Z 34003KT 03/M00 A3014 RMK A01 T00261004  RH  081%=      5-min Rain = 0
KCES 171440Z 35002KT 03/M00 A3014 RMK A01 T00301002  RH  081%=      5-min Rain = 0
KCES 171445Z 05002KT 04/00 A3014 RMK A01 T00350001  RH  079%=      5-min Rain = 0
KCES 171450Z 03002KT 04/00 A3014 RMK A01 T00380001  RH  077%=      5-min Rain = 0
KCES 171455Z 32004KT 04/M00 A3014 RMK A01 T00401001  RH  076%=      5-min Rain = 0
KCES 171500Z 32003KT 04/00 A3014 RMK A01 T00420002  RH  077%=      5-min Rain = 0
KCES 171505Z 34003KT 05/01 A3015 RMK A01 T00470006  RH  076%=      5-min Rain = 0
KCES 171510Z 35003KT 05/01 A3015 RMK A01 T00520007  RH  074%=      5-min Rain = 0
KCES 171515Z 33003KT 06/01 A3015 RMK A01 T00550006  RH  072%=      5-min Rain = 0
KCES 171520Z 33004KT 06/01 A3015 RMK A01 T00580007  RH  070%=      5-min Rain = 0
KCES 171525Z 33005KT 06/01 A3015 RMK A01 T00610006  RH  069%=      5-min Rain = 0
KCES 171530Z 32005KT 06/01 A3015 RMK A01 T00640008  RH  068%=      5-min Rain = 0
KCES 171535Z 28005KT 07/01 A3015 RMK A01 T00680009  RH  067%=      5-min Rain = 0
KCES 171540Z 24005KT 07/01 A3016 RMK A01 T00730012  RH  066%=      5-min Rain = 0
KCES 171545Z 22007KT 08/01 A3016 RMK A01 T00770012  RH  065%=      5-min Rain = 0
KCES 171550Z 23006KT 08/01 A3016 RMK A01 T00810011  RH  062%=      5-min Rain = 0
KCES 171555Z 23006KT 09/01 A3017 RMK A01 T00850009  RH  060%=      5-min Rain = 0
KCES 171600Z 23005KT 09/01 A3017 RMK A01 T00870009  RH  059%=      5-min Rain = 0
KCES 171605Z 24006KT 09/01 A3017 RMK A01 T00890009  RH  058%=      5-min Rain = 0
KCES 171610Z 23006KT 09/01 A3018 RMK A01 T00880007  RH  057%=      5-min Rain = 0
KCES 171615Z 24005KT 09/01 A3018 RMK A01 T00910007  RH  057%=      5-min Rain = 0
KCES 171620Z 25006KT 09/01 A3018 RMK A01 T00940006  RH  055%=      5-min Rain = 0
KCES 171625Z 25006KT 10/01 A3019 RMK A01 T00960005  RH  054%=      5-min Rain = 0
KCES 171630Z 24007KT 10/01 A3019 RMK A01 T01000006  RH  053%=      5-min Rain = 0
KCES 171635Z 25004KT 10/01 A3018 RMK A01 T00980005  RH  053%=      5-min Rain = 0
KCES 171640Z 23005KT 10/01 A3018 RMK A01 T01030007  RH  052%=      5-min Rain = 0
KCES 171645Z 26005KT 11/01 A3019 RMK A01 T01060005  RH  050%=      5-min Rain = 0
KCES 171650Z 27005KT 11/01 A3019 RMK A01 T01070005  RH  050%=      5-min Rain = 0
KCES 171655Z 26003KT 11/01 A3019 RMK A01 T01120005  RH  048%=      5-min Rain = 0
KCES 171700Z 29004KT 12/00 A3019 RMK A01 T01180004  RH  046%=      5-min Rain = 0
KCES 171705Z 26005KT 12/00 A3019 RMK A01 T01210003  RH  045%=      5-min Rain = 0
KCES 171710Z 26003KT 13/00 A3019 RMK A01 T01250001  RH  043%=      5-min Rain = 0
KCES 171715Z 30002KT 13/M00 A3019 RMK A01 T01291001  RH  041%=      5-min Rain = 0
KCES 171720Z 26003KT 13/00 A3019 RMK A01 T01310000  RH  041%=      5-min Rain = 0
KCES 171725Z 18001KT 13/00 A3018 RMK A01 T01340003  RH  041%=      5-min Rain = 0
KCES 171730Z 27002KT 14/00 A3018 RMK A01 T013900-0  RH  039%=      5-min Rain = 0
KCES 171735Z 02003KT 14/M01 A3018 RMK A01 T01421008  RH  036%=      5-min Rain = 0
KCES 171740Z 34003KT 15/M01 A3018 RMK A01 T01451011  RH  034%=      5-min Rain = 0
KCES 171745Z 34002KT 15/M01 A3018 RMK A01 T01481011  RH  034%=      5-min Rain = 0
KCES 171750Z 36003KT 15/M01 A3018 RMK A01 T01511012  RH  033%=      5-min Rain = 0
KCES 171755Z 03004KT 15/M01 A3018 RMK A01 T01531012  RH  032%=      5-min Rain = 0
KCES 171800Z 03002KT 15/M02 A3018 RMK A01 T01541015  RH  031%=      5-min Rain = 0
KCES 171805Z 09002KT 16/M01 A3018 RMK A01 T01561013  RH  032%=      5-min Rain = 0
KCES 171810Z 06003KT 16/M02 A3018 RMK A01 T01591018  RH  030%=      5-min Rain = 0
KCES 171815Z 04003KT 16/M02 A3018 RMK A01 T01601021  RH  029%=      5-min Rain = 0
KCES 171820Z 06004KT 16/M02 A3017 RMK A01 T01591024  RH  029%=      5-min Rain = 0
KCES 171825Z 04004KT 16/M03 A3017 RMK A01 T01581025  RH  029%=      5-min Rain = 0
KCES 171830Z 03002KT 16/M02 A3017 RMK A01 T01591021  RH  029%=      5-min Rain = 0
KCES 171835Z 09001KT 16/M02 A3017 RMK A01 T01611019  RH  029%=      5-min Rain = 0
KCES 171840Z 15003G8KT 17/M02 A3016 RMK A01 T01651023  RH  028%=      5-min Rain = 0
KCES 171845Z 14006KT 17/M02 A3016 RMK A01 T01681022  RH  027%=      5-min Rain = 0
KCES 171850Z 14004KT 17/M02 A3015 RMK A01 T01671023  RH  027%=      5-min Rain = 0
KCES 171855Z 17006KT 17/M02 A3015 RMK A01 T01681021  RH  028%=      5-min Rain = 0
KCES 171900Z 19007KT 17/M02 A3015 RMK A01 T01681021  RH  028%=      5-min Rain = 0
KCES 171905Z 20002KT 17/M02 A3014 RMK A01 T01711019  RH  027%=      5-min Rain = 0
KCES 171910Z 19008KT 17/M02 A3013 RMK A01 T01741017  RH  027%=      5-min Rain = 0
KCES 171915Z 18007KT 17/M02 A3013 RMK A01 T01731016  RH  028%=      5-min Rain = 0
KCES 171920Z 15005KT 17/M02 A3013 RMK A01 T01721017  RH  028%=      5-min Rain = 0
KCES 171925Z 18007KT 17/M02 A3012 RMK A01 T01731018  RH  027%=      5-min Rain = 0
KCES 171930Z 19007KT 17/M02 A3012 RMK A01 T01731019  RH  027%=      5-min Rain = 0
KCES 171935Z 17005G10KT 18/M02 A3012 RMK A01 T01761019  RH  027%=      5-min Rain = 0
KCES 171940Z 19005G10KT 18/M02 A3011 RMK A01 T01761019  RH  027%=      5-min Rain = 0
KCES 171945Z 18006KT 17/M02 A3011 RMK A01 T01741018  RH  027%=      5-min Rain = 0
KCES 171950Z 20007KT 18/M02 A3011 RMK A01 T01751018  RH  027%=      5-min Rain = 0
KCES 171955Z 18007KT 18/M02 A301 RMK A01 T01751021  RH  026%=      5-min Rain = 0
KCES 172000Z 17007G12KT 18/M02 A301 RMK A01 T01751021  RH  027%=      5-min Rain = 0
KCES 172005Z 20008KT 18/M02 A301 RMK A01 T01761022  RH  026%=      5-min Rain = 0
KCES 172010Z 21008KT 18/M02 A301 RMK A01 T01761024  RH  026%=      5-min Rain = 0
KCES 172015Z 17007G12KT 18/M02 A301 RMK A01 T01751022  RH  026%=      5-min Rain = 0
KCES 172020Z 20008KT 18/M02 A3009 RMK A01 T01771021  RH  026%=      5-min Rain = 0
KCES 172025Z 19008KT 18/M02 A3009 RMK A01 T01801021  RH  026%=      5-min Rain = 0
KCES 172030Z 22009KT 18/M02 A3009 RMK A01 T01781023  RH  025%=      5-min Rain = 0
KCES 172035Z 18007KT 18/M02 A3009 RMK A01 T01781022  RH  026%=      5-min Rain = 0
KCES 172040Z 20009KT 18/M02 A3009 RMK A01 T01791021  RH  026%=      5-min Rain = 0
KCES 172045Z 20007KT 18/M02 A3009 RMK A01 T01801021  RH  026%=      5-min Rain = 0
KCES 172050Z 18008KT 18/M02 A3008 RMK A01 T01781021  RH  026%=      5-min Rain = 0
KCES 172055Z 18011KT 18/M02 A3008 RMK A01 T01781022  RH  026%=      5-min Rain = 0
KCES 172100Z 19010G15KT 18/M02 A3008 RMK A01 T01781022  RH  026%=      5-min Rain = 0
KCES 172105Z 19006G13KT 18/M02 A3007 RMK A01 T01771023  RH  026%=      5-min Rain = 0
KCES 172110Z 17009G16KT 18/M02 A3007 RMK A01 T01791023  RH  025%=      5-min Rain = 0
KCES 172115Z 19010KT 18/M03 A3007 RMK A01 T01781025  RH  025%=      5-min Rain = 0
KCES 172120Z 19007KT 18/M03 A3007 RMK A01 T01771026  RH  025%=      5-min Rain = 0
KCES 172125Z 20007KT 18/M03 A3007 RMK A01 T01791025  RH  025%=      5-min Rain = 0
KCES 172130Z 19009KT 18/M03 A3007 RMK A01 T01791026  RH  025%=      5-min Rain = 0
KCES 172135Z 18010KT 18/M03 A3007 RMK A01 T01791026  RH  025%=      5-min Rain = 0
KCES 172140Z 17009KT 18/M03 A3007 RMK A01 T01781025  RH  025%=      5-min Rain = 0
KCES 172145Z 17007KT 18/M02 A3006 RMK A01 T01791024  RH  025%=      5-min Rain = 0
KCES 172150Z 18011KT 18/M02 A3006 RMK A01 T01791023  RH  025%=      5-min Rain = 0
KCES 172155Z 17009KT 18/M02 A3006 RMK A01 T01781021  RH  026%=      5-min Rain = 0
KCES 172200Z 17009KT 18/M02 A3006 RMK A01 T01801020  RH  026%=      5-min Rain = 0
KCES 172205Z 19008KT 18/M02 A3006 RMK A01 T01781019  RH  026%=      5-min Rain = 0
KCES 172210Z 19008KT 18/M02 A3006 RMK A01 T01791018  RH  026%=      5-min Rain = 0
KCES 172215Z 17009G14KT 18/M02 A3006 RMK A01 T01781020  RH  026%=      5-min Rain = 0
KCES 172220Z 18009KT 18/M02 A3006 RMK A01 T01761020  RH  026%=      5-min Rain = 0
KCES 172225Z 17010KT 18/M02 A3006 RMK A01 T01771019  RH  027%=      5-min Rain = 0
KCES 172230Z 17010KT 18/M02 A3006 RMK A01 T01751019  RH  027%=      5-min Rain = 0
KCES 172235Z 17011KT 17/M02 A3006 RMK A01 T01741018  RH  027%=      5-min Rain = 0
KCES 172240Z 16011KT 17/M02 A3006 RMK A01 T01721018  RH  027%=      5-min Rain = 0
KCES 172245Z 16011KT 17/M02 A3006 RMK A01 T01711017  RH  028%=      5-min Rain = 0
KCES 172250Z 16011KT 17/M02 A3006 RMK A01 T01691016  RH  028%=      5-min Rain = 0
KCES 172255Z 16011KT 17/M02 A3006 RMK A01 T01671015  RH  029%=      5-min Rain = 0
KCES 172300Z 16010KT 17/M02 A3005 RMK A01 T01661015  RH  029%=      5-min Rain = 0
KCES 172305Z 15012KT 16/M02 A3005 RMK A01 T01641015  RH  030%=      5-min Rain = 0
KCES 172310Z 15012KT 16/M02 A3005 RMK A01 T01611015  RH  030%=      5-min Rain = 0
KCES 172315Z 16011KT 16/M02 A3005 RMK A01 T01591016  RH  030%=      5-min Rain = 0
KCES 172320Z 15011KT 16/M02 A3005 RMK A01 T01571016  RH  031%=      5-min Rain = 0
KCES 172325Z 15010KT 15/M02 A3004 RMK A01 T01541015  RH  031%=      5-min Rain = 0
KCES 172330Z 15010KT 15/M01 A3004 RMK A01 T01511014  RH  032%=      5-min Rain = 0
KCES 172335Z 14010KT 15/M01 A3004 RMK A01 T01471013  RH  034%=      5-min Rain = 0
KCES 172340Z 14011KT 14/M01 A3004 RMK A01 T01421009  RH  036%=      5-min Rain = 0
KCES 172345Z 14010KT 14/M00 A3005 RMK A01 T01381004  RH  038%=      5-min Rain = 0
KCES 172350Z 14009KT 13/M00 A3004 RMK A01 T01311002  RH  040%=      5-min Rain = 0
KCES 172355Z 14009KT 13/M00 A3004 RMK A01 T01251001  RH  043%=      5-min Rain = 0
KCES 180000Z 14009KT 12/00 A3004 RMK A01 T01210002  RH  044%=      5-min Rain = 0
KCES 180005Z 14009KT 12/00 A3004 RMK A01 T01160002  RH  046%=      5-min Rain = 0
KCES 180010Z 14009KT 11/00 A3005 RMK A01 T01120002  RH  047%=      5-min Rain = 0
KCES 180015Z 14009KT 11/00 A3005 RMK A01 T01080001  RH  048%=      5-min Rain = 0
KCES 180020Z 14009KT 10/00 A3005 RMK A01 T01040001  RH  049%=      5-min Rain = 0
KCES 180025Z 14009KT 10/00 A3005 RMK A01 T01010000  RH  050%=      5-min Rain = 0
KCES 180030Z 14009KT 10/00 A3005 RMK A01 T009600-0  RH  051%=      5-min Rain = 0
KCES 180035Z 14010KT 10/00 A3005 RMK A01 T00950000  RH  052%=      5-min Rain = 0
KCES 180040Z 14009KT 10/00 A3005 RMK A01 T00950001  RH  053%=      5-min Rain = 0
KCES 180045Z 14009KT 09/00 A3005 RMK A01 T00930002  RH  053%=      5-min Rain = 0
KCES 180050Z 14009KT 09/00 A3005 RMK A01 T00920003  RH  054%=      5-min Rain = 0
KCES 180055Z 14009KT 09/00 A3005 RMK A01 T00930004  RH  054%=      5-min Rain = 0
KCES 180100Z 14010KT 09/01 A3005 RMK A01 T00930005  RH  055%=      5-min Rain = 0
KCES 180105Z 15010KT 09/01 A3005 RMK A01 T00930005  RH  055%=      5-min Rain = 0
KCES 180110Z 15011KT 10/01 A3004 RMK A01 T00960006  RH  054%=      5-min Rain = 0
KCES 180115Z 15011KT 10/01 A3004 RMK A01 T00980006  RH  054%=      5-min Rain = 0
KCES 180120Z 15011KT 10/01 A3005 RMK A01 T00990007  RH  054%=      5-min Rain = 0
KCES 180125Z 15011KT 10/01 A3005 RMK A01 T01000008  RH  053%=      5-min Rain = 0
KCES 180130Z 15011KT 10/01 A3005 RMK A01 T01000008  RH  054%=      5-min Rain = 0
KCES 180135Z 15012KT 10/01 A3005 RMK A01 T00990009  RH  054%=      5-min Rain = 0
KCES 180140Z 15013KT 10/01 A3004 RMK A01 T01000009  RH  054%=      5-min Rain = 0
KCES 180145Z 15013KT 10/01 A3004 RMK A01 T01010010  RH  054%=      5-min Rain = 0
KCES 180150Z 15013G18KT 10/01 A3004 RMK A01 T01000010  RH  054%=      5-min Rain = 0
KCES 180155Z 16014KT 10/01 A3004 RMK A01 T01000011  RH  055%=      5-min Rain = 0
KCES 180200Z 16014KT 10/01 A3004 RMK A01 T00990012  RH  055%=      5-min Rain = 0
KCES 180205Z 16015KT 10/01 A3004 RMK A01 T01000014  RH  056%=      5-min Rain = 0
KCES 180210Z 16016G21KT 10/02 A3004 RMK A01 T01010016  RH  056%=      5-min Rain = 0
KCES 180215Z 16016KT 10/02 A3004 RMK A01 T01010016  RH  056%=      5-min Rain = 0
KCES 180220Z 16016KT 10/02 A3004 RMK A01 T01010016  RH  057%=      5-min Rain = 0
KCES 180225Z 16017KT 10/02 A3003 RMK A01 T01000016  RH  057%=      5-min Rain = 0
KCES 180230Z 16016G21KT 10/02 A3003 RMK A01 T00990016  RH  057%=      5-min Rain = 0
KCES 180235Z 16016G21KT 10/02 A3003 RMK A01 T00980017  RH  058%=      5-min Rain = 0
KCES 180240Z 16016G21KT 10/02 A3003 RMK A01 T00970017  RH  058%=      5-min Rain = 0
KCES 180245Z 16017KT 10/02 A3003 RMK A01 T00970018  RH  059%=      5-min Rain = 0
KCES 180250Z 16016KT 10/02 A3002 RMK A01 T00950018  RH  060%=      5-min Rain = 0
KCES 180255Z 17015KT 09/02 A3002 RMK A01 T00920018  RH  061%=      5-min Rain = 0
KCES 180300Z 17015KT 09/02 A3002 RMK A01 T00910018  RH  061%=      5-min Rain = 0
KCES 180305Z 17014KT 09/02 A3002 RMK A01 T00890018  RH  062%=      5-min Rain = 0
KCES 180310Z 17013KT 09/02 A3002 RMK A01 T00880018  RH  062%=      5-min Rain = 0
KCES 180315Z 17013KT 09/02 A3002 RMK A01 T00880018  RH  063%=      5-min Rain = 0
KCES 180320Z 18013KT 09/02 A3002 RMK A01 T00870019  RH  063%=      5-min Rain = 0
KCES 180325Z 17014KT 09/02 A3002 RMK A01 T00870019  RH  064%=      5-min Rain = 0
KCES 180330Z 18015KT 09/02 A3001 RMK A01 T00860019  RH  064%=      5-min Rain = 0
KCES 180335Z 18014KT 09/02 A3001 RMK A01 T00850019  RH  064%=      5-min Rain = 0
KCES 180340Z 18015KT 08/02 A3001 RMK A01 T00830019  RH  065%=      5-min Rain = 0
KCES 180345Z 18015KT 08/02 A3001 RMK A01 T00800019  RH  066%=      5-min Rain = 0
KCES 180350Z 18014KT 08/02 A3001 RMK A01 T00780019  RH  067%=      5-min Rain = 0
KCES 180355Z 18013KT 08/02 A30 RMK A01 T00760018  RH  068%=      5-min Rain = 0
KCES 180400Z 18012KT 07/02 A30 RMK A01 T00730018  RH  069%=      5-min Rain = 0
KCES 180405Z 19013KT 07/02 A30 RMK A01 T00740018  RH  069%=      5-min Rain = 0
KCES 180410Z 19013KT 08/02 A30 RMK A01 T00750018  RH  068%=      5-min Rain = 0
KCES 180415Z 18014KT 08/02 A30 RMK A01 T00760019  RH  068%=      5-min Rain = 0
KCES 180420Z 18015KT 08/02 A30 RMK A01 T00770019  RH  067%=      5-min Rain = 0
KCES 180425Z 18014KT 08/02 A30 RMK A01 T00770019  RH  068%=      5-min Rain = 0
KCES 180430Z 18014KT 08/02 A30 RMK A01 T00750019  RH  068%=      5-min Rain = 0
KCES 180435Z 18014KT 07/02 A30 RMK A01 T00740019  RH  069%=      5-min Rain = 0
KCES 180440Z 18014KT 07/02 A30 RMK A01 T00740020  RH  070%=      5-min Rain = 0
KCES 180445Z 18015KT 07/02 A30 RMK A01 T00720020  RH  070%=      5-min Rain = 0
KCES 180450Z 18014KT 07/02 A30 RMK A01 T00710020  RH  071%=      5-min Rain = 0
KCES 180455Z 18014KT 07/02 A30 RMK A01 T00680019  RH  072%=      5-min Rain = 0
KCES 180500Z 18015KT 07/02 A2999 RMK A01 T00680020  RH  072%=      5-min Rain = 0
KCES 180505Z 18015KT 07/02 A2999 RMK A01 T00690020  RH  072%=      5-min Rain = 0
KCES 180510Z 18014KT 07/02 A2999 RMK A01 T00690019  RH  072%=      5-min Rain = 0
KCES 180515Z 18015KT 07/02 A2999 RMK A01 T00690020  RH  072%=      5-min Rain = 0
KCES 180520Z 18015KT 07/02 A2998 RMK A01 T00710020  RH  071%=      5-min Rain = 0
KCES 180525Z 18015KT 07/02 A2998 RMK A01 T00710020  RH  071%=      5-min Rain = 0
KCES 180530Z 18014KT 07/02 A2998 RMK A01 T00690019  RH  072%=      5-min Rain = 0
KCES 180535Z 18014KT 07/02 A2998 RMK A01 T00680019  RH  072%=      5-min Rain = 0
KCES 180540Z 18013KT 07/02 A2998 RMK A01 T00680019  RH  072%=      5-min Rain = 0
KCES 180545Z 18013KT 07/02 A2998 RMK A01 T00680019  RH  072%=      5-min Rain = 0
KCES 180550Z 18012KT 07/02 A2998 RMK A01 T00680019  RH  072%=      5-min Rain = 0
KCES 180555Z 18013KT 07/02 A2998 RMK A01 T00660019  RH  073%=      5-min Rain = 0

Page generated in 0.0099 seconds.